sensor_id;sensor_type;location;lat;lon;timestamp;temperature;humidity
21778;DHT22;11050;52.222;20.916;2023-08-30T00:00:52;19.10;99.90
21778;DHT22;11050;52.222;20.916;2023-08-30T00:03:18;19.10;99.90
21778;DHT22;11050;52.222;20.916;2023-08-30T00:05:44;19.10;99.90
21778;DHT22;11050;52.222;20.916;2023-08-30T00:08:10;19.10;99.90
21778;DHT22;11050;52.222;20.916;2023-08-30T00:10:36;19.10;99.90
21778;DHT22;11050;52.222;20.916;2023-08-30T00:13:03;19.10;99.90
21778;DHT22;11050;52.222;20.916;2023-08-30T00:15:29;19.00;99.90
21778;DHT22;11050;52.222;20.916;2023-08-30T00:17:55;19.10;99.90
21778;DHT22;11050;52.222;20.916;2023-08-30T00:20:21;19.00;99.90
21778;DHT22;11050;52.222;20.916;2023-08-30T00:22:47;19.00;99.90
21778;DHT22;11050;52.222;20.916;2023-08-30T00:25:16;19.00;99.90
21778;DHT22;11050;52.222;20.916;2023-08-30T00:27:42;18.90;99.90
21778;DHT22;11050;52.222;20.916;2023-08-30T00:30:08;18.90;99.90
21778;DHT22;11050;52.222;20.916;2023-08-30T00:32:35;18.90;99.90
21778;DHT22;11050;52.222;20.916;2023-08-30T00:35:01;18.90;99.90
21778;DHT22;11050;52.222;20.916;2023-08-30T00:37:27;18.90;99.90
21778;DHT22;11050;52.222;20.916;2023-08-30T00:39:53;18.80;99.90
21778;DHT22;11050;52.222;20.916;2023-08-30T00:42:19;18.80;99.90
21778;DHT22;11050;52.222;20.916;2023-08-30T00:44:44;18.80;99.90
21778;DHT22;11050;52.222;20.916;2023-08-30T00:47:10;18.80;99.90
21778;DHT22;11050;52.222;20.916;2023-08-30T00:49:36;18.70;99.90
21778;DHT22;11050;52.222;20.916;2023-08-30T00:52:06;18.70;99.90
21778;DHT22;11050;52.222;20.916;2023-08-30T00:54:35;18.60;99.90
21778;DHT22;11050;52.222;20.916;2023-08-30T00:57:01;18.60;99.90
21778;DHT22;11050;52.222;20.916;2023-08-30T00:59:28;18.60;99.90
21778;DHT22;11050;52.222;20.916;2023-08-30T01:01:57;18.60;99.90
21778;DHT22;11050;52.222;20.916;2023-08-30T01:04:24;18.50;99.90
21778;DHT22;11050;52.222;20.916;2023-08-30T01:06:50;18.50;99.90
21778;DHT22;11050;52.222;20.916;2023-08-30T01:09:17;18.40;99.90
21778;DHT22;11050;52.222;20.916;2023-08-30T01:12:00;18.40;99.90
21778;DHT22;11050;52.222;20.916;2023-08-30T01:14:56;18.40;99.90
21778;DHT22;11050;52.222;20.916;2023-08-30T01:17:27;18.40;99.90
21778;DHT22;11050;52.222;20.916;2023-08-30T01:20:04;18.40;99.90
21778;DHT22;11050;52.222;20.916;2023-08-30T01:22:53;18.30;99.90
21778;DHT22;11050;52.222;20.916;2023-08-30T01:28:04;18.20;99.90
21778;DHT22;11050;52.222;20.916;2023-08-30T01:30:36;18.20;99.90
21778;DHT22;11050;52.222;20.916;2023-08-30T01:33:05;18.20;99.90
21778;DHT22;11050;52.222;20.916;2023-08-30T01:35:34;18.20;99.90
21778;DHT22;11050;52.222;20.916;2023-08-30T01:38:03;18.10;99.90
21778;DHT22;11050;52.222;20.916;2023-08-30T01:40:35;18.10;99.90
21778;DHT22;11050;52.222;20.916;2023-08-30T01:43:04;18.10;99.90
21778;DHT22;11050;52.222;20.916;2023-08-30T01:45:35;18.10;99.90
21778;DHT22;11050;52.222;20.916;2023-08-30T01:48:04;18.10;99.90
21778;DHT22;11050;52.222;20.916;2023-08-30T01:50:33;18.10;99.90
21778;DHT22;11050;52.222;20.916;2023-08-30T01:53:00;18.10;99.90
21778;DHT22;11050;52.222;20.916;2023-08-30T01:55:28;18.10;99.90
21778;DHT22;11050;52.222;20.916;2023-08-30T01:57:55;18.10;99.90
21778;DHT22;11050;52.222;20.916;2023-08-30T02:00:21;18.10;99.90
21778;DHT22;11050;52.222;20.916;2023-08-30T02:02:48;18.00;99.90
21778;DHT22;11050;52.222;20.916;2023-08-30T02:05:13;18.00;99.90
21778;DHT22;11050;52.222;20.916;2023-08-30T02:07:58;18.00;99.90
21778;DHT22;11050;52.222;20.916;2023-08-30T02:10:35;18.00;99.90
21778;DHT22;11050;52.222;20.916;2023-08-30T02:13:04;18.00;99.90
21778;DHT22;11050;52.222;20.916;2023-08-30T02:15:33;18.00;99.90
21778;DHT22;11050;52.222;20.916;2023-08-30T02:18:03;18.00;99.90
21778;DHT22;11050;52.222;20.916;2023-08-30T02:20:30;18.00;99.90
21778;DHT22;11050;52.222;20.916;2023-08-30T02:23:00;18.00;99.90
21778;DHT22;11050;52.222;20.916;2023-08-30T02:25:26;18.00;99.90
21778;DHT22;11050;52.222;20.916;2023-08-30T02:27:52;17.90;99.90
21778;DHT22;11050;52.222;20.916;2023-08-30T02:30:18;17.90;99.90
21778;DHT22;11050;52.222;20.916;2023-08-30T02:32:44;17.90;99.90
21778;DHT22;11050;52.222;20.916;2023-08-30T02:35:10;17.80;99.90
21778;DHT22;11050;52.222;20.916;2023-08-30T02:37:35;17.80;99.90
21778;DHT22;11050;52.222;20.916;2023-08-30T02:40:02;17.80;99.90
21778;DHT22;11050;52.222;20.916;2023-08-30T02:42:28;17.70;99.90
21778;DHT22;11050;52.222;20.916;2023-08-30T02:44:54;17.70;99.90
21778;DHT22;11050;52.222;20.916;2023-08-30T02:47:20;17.70;99.90
21778;DHT22;11050;52.222;20.916;2023-08-30T02:49:45;17.70;99.90
21778;DHT22;11050;52.222;20.916;2023-08-30T02:52:11;17.70;99.90
21778;DHT22;11050;52.222;20.916;2023-08-30T02:54:37;17.70;99.90
21778;DHT22;11050;52.222;20.916;2023-08-30T02:57:03;17.70;99.90
21778;DHT22;11050;52.222;20.916;2023-08-30T02:59:29;17.70;99.90
21778;DHT22;11050;52.222;20.916;2023-08-30T03:01:55;17.60;99.90
21778;DHT22;11050;52.222;20.916;2023-08-30T03:04:21;17.60;99.90
21778;DHT22;11050;52.222;20.916;2023-08-30T03:06:46;17.50;99.90
21778;DHT22;11050;52.222;20.916;2023-08-30T03:09:12;17.50;99.90
21778;DHT22;11050;52.222;20.916;2023-08-30T03:11:38;17.50;99.90
21778;DHT22;11050;52.222;20.916;2023-08-30T03:14:04;17.50;99.90
21778;DHT22;11050;52.222;20.916;2023-08-30T03:16:29;17.40;99.90
21778;DHT22;11050;52.222;20.916;2023-08-30T03:18:55;17.40;99.90
21778;DHT22;11050;52.222;20.916;2023-08-30T03:21:21;17.30;99.90
21778;DHT22;11050;52.222;20.916;2023-08-30T03:23:46;17.30;99.90
21778;DHT22;11050;52.222;20.916;2023-08-30T03:26:14;17.30;99.90
21778;DHT22;11050;52.222;20.916;2023-08-30T03:28:42;17.20;99.90
21778;DHT22;11050;52.222;20.916;2023-08-30T03:31:16;17.20;99.90
21778;DHT22;11050;52.222;20.916;2023-08-30T03:33:44;17.20;99.90
21778;DHT22;11050;52.222;20.916;2023-08-30T03:36:11;17.20;99.90
21778;DHT22;11050;52.222;20.916;2023-08-30T03:38:38;17.10;99.90
21778;DHT22;11050;52.222;20.916;2023-08-30T03:41:04;17.10;99.90
21778;DHT22;11050;52.222;20.916;2023-08-30T03:43:31;17.10;99.90
21778;DHT22;11050;52.222;20.916;2023-08-30T03:45:59;17.10;99.90
21778;DHT22;11050;52.222;20.916;2023-08-30T03:48:26;17.10;99.90
21778;DHT22;11050;52.222;20.916;2023-08-30T03:50:52;17.10;99.90
21778;DHT22;11050;52.222;20.916;2023-08-30T03:53:19;17.10;99.90
21778;DHT22;11050;52.222;20.916;2023-08-30T03:55:45;17.10;99.90
21778;DHT22;11050;52.222;20.916;2023-08-30T03:58:11;17.10;99.90
21778;DHT22;11050;52.222;20.916;2023-08-30T04:00:37;17.10;99.90
21778;DHT22;11050;52.222;20.916;2023-08-30T04:03:07;17.10;99.90
21778;DHT22;11050;52.222;20.916;2023-08-30T04:05:37;17.00;99.90
21778;DHT22;11050;52.222;20.916;2023-08-30T04:08:04;17.00;99.90
21778;DHT22;11050;52.222;20.916;2023-08-30T04:10:38;17.00;99.90
21778;DHT22;11050;52.222;20.916;2023-08-30T04:13:06;17.00;99.90
21778;DHT22;11050;52.222;20.916;2023-08-30T04:15:36;17.00;99.90
21778;DHT22;11050;52.222;20.916;2023-08-30T04:18:04;17.00;99.90
21778;DHT22;11050;52.222;20.916;2023-08-30T04:20:31;17.10;99.90
21778;DHT22;11050;52.222;20.916;2023-08-30T04:22:58;17.10;99.90
21778;DHT22;11050;52.222;20.916;2023-08-30T04:25:27;17.10;99.90
21778;DHT22;11050;52.222;20.916;2023-08-30T04:27:54;17.10;99.90
21778;DHT22;11050;52.222;20.916;2023-08-30T04:30:20;17.10;99.90
21778;DHT22;11050;52.222;20.916;2023-08-30T04:32:45;17.20;99.90
21778;DHT22;11050;52.222;20.916;2023-08-30T04:35:11;17.20;99.90
21778;DHT22;11050;52.222;20.916;2023-08-30T04:37:37;17.20;99.90
21778;DHT22;11050;52.222;20.916;2023-08-30T04:40:09;17.20;99.90
21778;DHT22;11050;52.222;20.916;2023-08-30T04:42:35;17.20;99.90
21778;DHT22;11050;52.222;20.916;2023-08-30T04:45:02;17.30;99.90
21778;DHT22;11050;52.222;20.916;2023-08-30T04:47:29;17.20;99.90
21778;DHT22;11050;52.222;20.916;2023-08-30T04:49:56;17.30;99.90
21778;DHT22;11050;52.222;20.916;2023-08-30T04:52:22;17.30;99.90
21778;DHT22;11050;52.222;20.916;2023-08-30T04:54:47;17.30;99.90
21778;DHT22;11050;52.222;20.916;2023-08-30T04:57:14;17.30;99.90
21778;DHT22;11050;52.222;20.916;2023-08-30T04:59:45;17.30;99.90
21778;DHT22;11050;52.222;20.916;2023-08-30T05:02:11;17.30;99.90
21778;DHT22;11050;52.222;20.916;2023-08-30T05:04:38;17.30;99.90
21778;DHT22;11050;52.222;20.916;2023-08-30T05:07:04;17.30;99.90
21778;DHT22;11050;52.222;20.916;2023-08-30T05:09:30;17.30;99.90
21778;DHT22;11050;52.222;20.916;2023-08-30T05:11:56;17.30;99.90
21778;DHT22;11050;52.222;20.916;2023-08-30T05:14:22;17.30;99.90
21778;DHT22;11050;52.222;20.916;2023-08-30T05:16:49;17.30;99.90
21778;DHT22;11050;52.222;20.916;2023-08-30T05:19:15;17.30;99.90
21778;DHT22;11050;52.222;20.916;2023-08-30T05:21:44;17.40;99.90
21778;DHT22;11050;52.222;20.916;2023-08-30T05:24:10;17.40;99.90
21778;DHT22;11050;52.222;20.916;2023-08-30T05:26:37;17.40;99.90
21778;DHT22;11050;52.222;20.916;2023-08-30T05:29:03;17.40;99.90
21778;DHT22;11050;52.222;20.916;2023-08-30T05:31:29;17.40;99.90
21778;DHT22;11050;52.222;20.916;2023-08-30T05:33:55;17.40;99.90
21778;DHT22;11050;52.222;20.916;2023-08-30T05:36:21;17.50;99.90
21778;DHT22;11050;52.222;20.916;2023-08-30T05:38:47;17.50;99.90
21778;DHT22;11050;52.222;20.916;2023-08-30T05:41:12;17.50;99.90
21778;DHT22;11050;52.222;20.916;2023-08-30T05:43:38;17.60;99.90
21778;DHT22;11050;52.222;20.916;2023-08-30T05:46:04;17.60;99.90
21778;DHT22;11050;52.222;20.916;2023-08-30T05:48:30;17.60;99.90
21778;DHT22;11050;52.222;20.916;2023-08-30T05:50:57;17.60;99.90
21778;DHT22;11050;52.222;20.916;2023-08-30T05:53:23;17.70;99.90
21778;DHT22;11050;52.222;20.916;2023-08-30T05:55:49;17.70;99.90
21778;DHT22;11050;52.222;20.916;2023-08-30T05:58:15;17.70;99.90
21778;DHT22;11050;52.222;20.916;2023-08-30T06:00:41;17.60;99.90
21778;DHT22;11050;52.222;20.916;2023-08-30T06:03:07;17.70;99.90
21778;DHT22;11050;52.222;20.916;2023-08-30T06:05:33;17.70;99.90
21778;DHT22;11050;52.222;20.916;2023-08-30T06:08:00;17.60;99.90
21778;DHT22;11050;52.222;20.916;2023-08-30T06:10:27;17.70;99.90
21778;DHT22;11050;52.222;20.916;2023-08-30T06:12:53;17.70;99.90
21778;DHT22;11050;52.222;20.916;2023-08-30T06:15:19;17.70;99.90
21778;DHT22;11050;52.222;20.916;2023-08-30T06:17:45;17.70;99.90
21778;DHT22;11050;52.222;20.916;2023-08-30T06:20:12;17.70;99.90
21778;DHT22;11050;52.222;20.916;2023-08-30T06:22:38;17.70;99.90
21778;DHT22;11050;52.222;20.916;2023-08-30T06:25:05;17.70;99.90
21778;DHT22;11050;52.222;20.916;2023-08-30T06:27:32;17.70;99.90
21778;DHT22;11050;52.222;20.916;2023-08-30T06:29:58;17.70;99.90
21778;DHT22;11050;52.222;20.916;2023-08-30T06:32:24;17.70;99.90
21778;DHT22;11050;52.222;20.916;2023-08-30T06:34:50;17.70;99.90
21778;DHT22;11050;52.222;20.916;2023-08-30T06:37:15;17.70;99.90
21778;DHT22;11050;52.222;20.916;2023-08-30T06:39:42;17.80;99.90
21778;DHT22;11050;52.222;20.916;2023-08-30T06:42:08;17.80;99.90
21778;DHT22;11050;52.222;20.916;2023-08-30T06:44:34;17.70;99.90
21778;DHT22;11050;52.222;20.916;2023-08-30T06:47:00;17.70;99.90
21778;DHT22;11050;52.222;20.916;2023-08-30T06:49:25;17.70;99.90
21778;DHT22;11050;52.222;20.916;2023-08-30T06:51:51;17.70;99.90
21778;DHT22;11050;52.222;20.916;2023-08-30T06:54:17;17.70;99.90
21778;DHT22;11050;52.222;20.916;2023-08-30T06:56:57;17.70;99.90
21778;DHT22;11050;52.222;20.916;2023-08-30T06:59:24;17.70;99.90
21778;DHT22;11050;52.222;20.916;2023-08-30T07:01:49;17.70;99.90
21778;DHT22;11050;52.222;20.916;2023-08-30T07:04:15;17.70;99.90
21778;DHT22;11050;52.222;20.916;2023-08-30T07:06:41;17.70;99.90
21778;DHT22;11050;52.222;20.916;2023-08-30T07:09:07;17.70;99.90
21778;DHT22;11050;52.222;20.916;2023-08-30T07:11:33;17.80;99.90
21778;DHT22;11050;52.222;20.916;2023-08-30T07:14:00;17.80;99.90
21778;DHT22;11050;52.222;20.916;2023-08-30T07:16:26;17.80;99.90
21778;DHT22;11050;52.222;20.916;2023-08-30T07:18:51;17.80;99.90
21778;DHT22;11050;52.222;20.916;2023-08-30T07:21:17;17.90;99.90
21778;DHT22;11050;52.222;20.916;2023-08-30T07:23:44;17.90;99.90
21778;DHT22;11050;52.222;20.916;2023-08-30T07:26:09;17.90;99.90
21778;DHT22;11050;52.222;20.916;2023-08-30T07:28:35;17.80;99.90
21778;DHT22;11050;52.222;20.916;2023-08-30T07:31:04;17.90;99.90
21778;DHT22;11050;52.222;20.916;2023-08-30T07:33:30;17.90;99.90
21778;DHT22;11050;52.222;20.916;2023-08-30T07:35:56;17.90;99.90
21778;DHT22;11050;52.222;20.916;2023-08-30T07:38:22;17.90;99.90
21778;DHT22;11050;52.222;20.916;2023-08-30T07:40:48;17.90;99.90
21778;DHT22;11050;52.222;20.916;2023-08-30T07:43:14;17.90;99.90
21778;DHT22;11050;52.222;20.916;2023-08-30T07:45:40;17.90;99.90
21778;DHT22;11050;52.222;20.916;2023-08-30T07:48:06;17.80;99.90
21778;DHT22;11050;52.222;20.916;2023-08-30T07:50:31;17.80;99.90
21778;DHT22;11050;52.222;20.916;2023-08-30T07:52:57;17.90;99.90
21778;DHT22;11050;52.222;20.916;2023-08-30T07:55:23;17.80;99.90
21778;DHT22;11050;52.222;20.916;2023-08-30T07:57:49;17.80;99.90
21778;DHT22;11050;52.222;20.916;2023-08-30T08:00:15;17.80;99.90
21778;DHT22;11050;52.222;20.916;2023-08-30T08:02:41;17.80;99.90
21778;DHT22;11050;52.222;20.916;2023-08-30T08:05:07;17.70;99.90
21778;DHT22;11050;52.222;20.916;2023-08-30T08:07:33;17.70;99.90
21778;DHT22;11050;52.222;20.916;2023-08-30T08:09:59;17.60;99.90
21778;DHT22;11050;52.222;20.916;2023-08-30T08:12:26;17.60;99.90
21778;DHT22;11050;52.222;20.916;2023-08-30T08:14:52;17.50;99.90
21778;DHT22;11050;52.222;20.916;2023-08-30T08:17:18;17.50;99.90
21778;DHT22;11050;52.222;20.916;2023-08-30T08:19:44;17.50;99.90
21778;DHT22;11050;52.222;20.916;2023-08-30T08:22:10;17.40;99.90
21778;DHT22;11050;52.222;20.916;2023-08-30T08:24:36;17.40;99.90
21778;DHT22;11050;52.222;20.916;2023-08-30T08:27:02;17.40;99.90
21778;DHT22;11050;52.222;20.916;2023-08-30T08:29:28;17.30;99.90
21778;DHT22;11050;52.222;20.916;2023-08-30T08:31:54;17.30;99.90
21778;DHT22;11050;52.222;20.916;2023-08-30T08:34:20;17.30;99.90
21778;DHT22;11050;52.222;20.916;2023-08-30T08:36:45;17.40;99.90
21778;DHT22;11050;52.222;20.916;2023-08-30T08:39:11;17.40;99.90
21778;DHT22;11050;52.222;20.916;2023-08-30T08:41:42;17.40;99.90
21778;DHT22;11050;52.222;20.916;2023-08-30T08:44:10;17.40;99.90
21778;DHT22;11050;52.222;20.916;2023-08-30T08:46:38;17.40;99.90
21778;DHT22;11050;52.222;20.916;2023-08-30T08:49:13;17.50;99.90
21778;DHT22;11050;52.222;20.916;2023-08-30T08:51:40;17.50;99.90
21778;DHT22;11050;52.222;20.916;2023-08-30T08:54:08;17.50;99.90
21778;DHT22;11050;52.222;20.916;2023-08-30T08:56:35;17.50;99.90
21778;DHT22;11050;52.222;20.916;2023-08-30T08:59:03;17.50;99.90
21778;DHT22;11050;52.222;20.916;2023-08-30T09:01:31;17.50;99.90
21778;DHT22;11050;52.222;20.916;2023-08-30T09:04:10;17.50;99.90
21778;DHT22;11050;52.222;20.916;2023-08-30T09:06:38;17.50;99.90
21778;DHT22;11050;52.222;20.916;2023-08-30T09:09:05;17.50;99.90
21778;DHT22;11050;52.222;20.916;2023-08-30T09:11:32;17.50;99.90
21778;DHT22;11050;52.222;20.916;2023-08-30T09:13:58;17.60;99.90
21778;DHT22;11050;52.222;20.916;2023-08-30T09:16:24;17.50;99.90
21778;DHT22;11050;52.222;20.916;2023-08-30T09:19:03;17.50;99.90
21778;DHT22;11050;52.222;20.916;2023-08-30T09:21:30;17.60;99.90
21778;DHT22;11050;52.222;20.916;2023-08-30T09:24:05;17.50;99.90
21778;DHT22;11050;52.222;20.916;2023-08-30T09:26:33;17.50;99.90
21778;DHT22;11050;52.222;20.916;2023-08-30T09:29:05;17.50;99.90
21778;DHT22;11050;52.222;20.916;2023-08-30T09:31:38;17.50;99.90
21778;DHT22;11050;52.222;20.916;2023-08-30T09:34:07;17.50;99.90
21778;DHT22;11050;52.222;20.916;2023-08-30T09:36:42;17.50;99.90
21778;DHT22;11050;52.222;20.916;2023-08-30T09:39:13;17.50;99.90
21778;DHT22;11050;52.222;20.916;2023-08-30T09:41:45;17.50;99.90
21778;DHT22;11050;52.222;20.916;2023-08-30T09:44:12;17.40;99.90
21778;DHT22;11050;52.222;20.916;2023-08-30T09:49:09;17.40;99.90
21778;DHT22;11050;52.222;20.916;2023-08-30T09:51:38;17.40;99.90
21778;DHT22;11050;52.222;20.916;2023-08-30T09:54:27;17.40;99.90
21778;DHT22;11050;52.222;20.916;2023-08-30T09:56:54;17.40;99.90
21778;DHT22;11050;52.222;20.916;2023-08-30T09:59:23;17.40;99.90
21778;DHT22;11050;52.222;20.916;2023-08-30T10:01:50;17.40;99.90
21778;DHT22;11050;52.222;20.916;2023-08-30T10:04:19;17.40;99.90
21778;DHT22;11050;52.222;20.916;2023-08-30T10:06:47;17.40;99.90
21778;DHT22;11050;52.222;20.916;2023-08-30T10:09:14;17.30;99.90
21778;DHT22;11050;52.222;20.916;2023-08-30T10:11:45;17.40;99.90
21778;DHT22;11050;52.222;20.916;2023-08-30T10:14:12;17.40;99.90
21778;DHT22;11050;52.222;20.916;2023-08-30T10:21:48;17.40;99.90
21778;DHT22;11050;52.222;20.916;2023-08-30T10:24:26;17.40;99.90
21778;DHT22;11050;52.222;20.916;2023-08-30T10:26:55;17.50;99.90
21778;DHT22;11050;52.222;20.916;2023-08-30T10:29:22;17.50;99.90
21778;DHT22;11050;52.222;20.916;2023-08-30T10:31:49;17.50;99.90
21778;DHT22;11050;52.222;20.916;2023-08-30T10:34:16;17.50;99.90
21778;DHT22;11050;52.222;20.916;2023-08-30T10:36:44;17.50;99.90
21778;DHT22;11050;52.222;20.916;2023-08-30T10:39:14;17.50;99.90
21778;DHT22;11050;52.222;20.916;2023-08-30T10:41:59;17.50;99.90
21778;DHT22;11050;52.222;20.916;2023-08-30T10:44:24;17.60;99.90
21778;DHT22;11050;52.222;20.916;2023-08-30T10:46:54;17.70;99.90
21778;DHT22;11050;52.222;20.916;2023-08-30T10:49:21;17.80;99.90
21778;DHT22;11050;52.222;20.916;2023-08-30T10:51:59;17.80;99.90
21778;DHT22;11050;52.222;20.916;2023-08-30T10:54:36;17.90;99.90
21778;DHT22;11050;52.222;20.916;2023-08-30T10:57:11;17.90;99.90
21778;DHT22;11050;52.222;20.916;2023-08-30T10:59:38;18.00;99.90
21778;DHT22;11050;52.222;20.916;2023-08-30T11:02:05;18.00;99.90
21778;DHT22;11050;52.222;20.916;2023-08-30T11:04:32;18.00;99.90
21778;DHT22;11050;52.222;20.916;2023-08-30T11:06:58;18.00;99.90
21778;DHT22;11050;52.222;20.916;2023-08-30T11:09:24;18.00;99.90
21778;DHT22;11050;52.222;20.916;2023-08-30T11:11:51;18.00;99.90
21778;DHT22;11050;52.222;20.916;2023-08-30T11:14:17;17.90;99.90
21778;DHT22;11050;52.222;20.916;2023-08-30T11:16:44;17.90;99.90
21778;DHT22;11050;52.222;20.916;2023-08-30T11:19:11;17.90;99.90
21778;DHT22;11050;52.222;20.916;2023-08-30T11:21:44;17.90;99.90
21778;DHT22;11050;52.222;20.916;2023-08-30T11:24:10;17.90;99.90
21778;DHT22;11050;52.222;20.916;2023-08-30T11:26:37;17.90;99.90
21778;DHT22;11050;52.222;20.916;2023-08-30T11:29:09;17.80;99.90
21778;DHT22;11050;52.222;20.916;2023-08-30T11:31:36;17.80;99.90
21778;DHT22;11050;52.222;20.916;2023-08-30T11:34:02;17.80;99.90
21778;DHT22;11050;52.222;20.916;2023-08-30T11:36:32;17.90;99.90
21778;DHT22;11050;52.222;20.916;2023-08-30T11:39:01;17.80;99.90
21778;DHT22;11050;52.222;20.916;2023-08-30T11:41:26;17.80;99.90
21778;DHT22;11050;52.222;20.916;2023-08-30T11:43:53;17.80;99.90
21778;DHT22;11050;52.222;20.916;2023-08-30T11:46:20;17.80;99.90
21778;DHT22;11050;52.222;20.916;2023-08-30T11:48:48;17.90;99.90
21778;DHT22;11050;52.222;20.916;2023-08-30T11:51:17;18.00;99.90
21778;DHT22;11050;52.222;20.916;2023-08-30T11:53:45;18.00;99.90
21778;DHT22;11050;52.222;20.916;2023-08-30T11:56:11;18.20;99.90
21778;DHT22;11050;52.222;20.916;2023-08-30T11:58:38;18.20;99.90
21778;DHT22;11050;52.222;20.916;2023-08-30T12:01:04;18.30;99.90
21778;DHT22;11050;52.222;20.916;2023-08-30T12:03:31;18.30;99.90
21778;DHT22;11050;52.222;20.916;2023-08-30T12:05:58;18.30;99.90
21778;DHT22;11050;52.222;20.916;2023-08-30T12:08:28;18.30;99.90
21778;DHT22;11050;52.222;20.916;2023-08-30T12:10:56;18.20;99.90
21778;DHT22;11050;52.222;20.916;2023-08-30T12:13:27;18.10;99.90
21778;DHT22;11050;52.222;20.916;2023-08-30T12:16:01;18.10;99.90
21778;DHT22;11050;52.222;20.916;2023-08-30T12:18:31;18.00;99.90
21778;DHT22;11050;52.222;20.916;2023-08-30T12:21:02;18.00;99.90
21778;DHT22;11050;52.222;20.916;2023-08-30T12:23:30;18.00;99.90
21778;DHT22;11050;52.222;20.916;2023-08-30T12:28:34;17.90;99.90
21778;DHT22;11050;52.222;20.916;2023-08-30T12:31:02;17.80;99.90
21778;DHT22;11050;52.222;20.916;2023-08-30T12:33:33;17.90;99.90
21778;DHT22;11050;52.222;20.916;2023-08-30T12:36:00;17.80;99.90
21778;DHT22;11050;52.222;20.916;2023-08-30T12:38:26;17.80;99.90
21778;DHT22;11050;52.222;20.916;2023-08-30T12:40:54;17.80;99.90
21778;DHT22;11050;52.222;20.916;2023-08-30T12:43:22;17.80;99.90
21778;DHT22;11050;52.222;20.916;2023-08-30T12:45:49;17.70;99.90
21778;DHT22;11050;52.222;20.916;2023-08-30T12:48:17;17.80;99.90
21778;DHT22;11050;52.222;20.916;2023-08-30T12:50:45;17.80;99.90
21778;DHT22;11050;52.222;20.916;2023-08-30T12:53:14;17.80;99.90
21778;DHT22;11050;52.222;20.916;2023-08-30T12:55:43;17.90;99.90
21778;DHT22;11050;52.222;20.916;2023-08-30T12:58:09;17.90;99.90
21778;DHT22;11050;52.222;20.916;2023-08-30T13:00:37;17.90;99.90
21778;DHT22;11050;52.222;20.916;2023-08-30T13:03:03;17.90;99.90
21778;DHT22;11050;52.222;20.916;2023-08-30T13:05:29;17.90;99.90
21778;DHT22;11050;52.222;20.916;2023-08-30T13:07:57;17.90;99.90
21778;DHT22;11050;52.222;20.916;2023-08-30T13:10:24;17.90;99.90
21778;DHT22;11050;52.222;20.916;2023-08-30T13:12:50;17.90;99.90
21778;DHT22;11050;52.222;20.916;2023-08-30T13:15:16;18.00;99.90
21778;DHT22;11050;52.222;20.916;2023-08-30T13:17:41;17.90;99.90
21778;DHT22;11050;52.222;20.916;2023-08-30T13:20:08;18.00;99.90
21778;DHT22;11050;52.222;20.916;2023-08-30T13:22:34;17.90;99.90
21778;DHT22;11050;52.222;20.916;2023-08-30T13:25:00;17.90;99.90
21778;DHT22;11050;52.222;20.916;2023-08-30T13:27:25;17.90;99.90
21778;DHT22;11050;52.222;20.916;2023-08-30T13:29:51;17.90;99.90
21778;DHT22;11050;52.222;20.916;2023-08-30T13:32:17;17.80;99.90
21778;DHT22;11050;52.222;20.916;2023-08-30T13:34:43;17.80;99.90
21778;DHT22;11050;52.222;20.916;2023-08-30T13:37:12;17.70;99.90
21778;DHT22;11050;52.222;20.916;2023-08-30T13:39:41;17.70;99.90
21778;DHT22;11050;52.222;20.916;2023-08-30T13:42:07;17.70;99.90
21778;DHT22;11050;52.222;20.916;2023-08-30T13:44:33;17.80;99.90
21778;DHT22;11050;52.222;20.916;2023-08-30T13:47:04;17.80;99.90
21778;DHT22;11050;52.222;20.916;2023-08-30T13:49:30;17.90;99.90
21778;DHT22;11050;52.222;20.916;2023-08-30T13:51:56;17.90;99.90
21778;DHT22;11050;52.222;20.916;2023-08-30T13:54:23;18.00;99.90
21778;DHT22;11050;52.222;20.916;2023-08-30T13:56:48;18.00;99.90
21778;DHT22;11050;52.222;20.916;2023-08-30T13:59:15;18.00;99.90
21778;DHT22;11050;52.222;20.916;2023-08-30T14:01:41;18.10;99.90
21778;DHT22;11050;52.222;20.916;2023-08-30T14:04:08;18.20;99.90
21778;DHT22;11050;52.222;20.916;2023-08-30T14:06:34;18.20;99.90
21778;DHT22;11050;52.222;20.916;2023-08-30T14:09:00;18.30;99.90
21778;DHT22;11050;52.222;20.916;2023-08-30T14:11:27;18.30;99.90
21778;DHT22;11050;52.222;20.916;2023-08-30T14:13:52;18.40;99.90
21778;DHT22;11050;52.222;20.916;2023-08-30T14:16:18;18.40;99.90
21778;DHT22;11050;52.222;20.916;2023-08-30T14:18:44;18.40;99.90
21778;DHT22;11050;52.222;20.916;2023-08-30T14:21:10;18.50;99.90
21778;DHT22;11050;52.222;20.916;2023-08-30T14:23:35;18.60;99.90
21778;DHT22;11050;52.222;20.916;2023-08-30T14:26:03;18.60;99.90
21778;DHT22;11050;52.222;20.916;2023-08-30T14:28:40;18.80;99.90
21778;DHT22;11050;52.222;20.916;2023-08-30T14:31:09;18.80;99.90
21778;DHT22;11050;52.222;20.916;2023-08-30T14:33:42;18.90;99.90
21778;DHT22;11050;52.222;20.916;2023-08-30T14:36:12;18.80;99.90
21778;DHT22;11050;52.222;20.916;2023-08-30T14:38:39;18.90;99.90
21778;DHT22;11050;52.222;20.916;2023-08-30T14:41:06;18.80;99.90
21778;DHT22;11050;52.222;20.916;2023-08-30T14:43:33;18.80;99.90
21778;DHT22;11050;52.222;20.916;2023-08-30T14:46:03;18.90;99.90
21778;DHT22;11050;52.222;20.916;2023-08-30T14:48:31;18.90;99.90
21778;DHT22;11050;52.222;20.916;2023-08-30T14:51:02;18.90;99.90
21778;DHT22;11050;52.222;20.916;2023-08-30T14:53:30;18.90;99.90
21778;DHT22;11050;52.222;20.916;2023-08-30T14:55:55;18.80;99.90
21778;DHT22;11050;52.222;20.916;2023-08-30T14:58:21;18.80;99.90
21778;DHT22;11050;52.222;20.916;2023-08-30T15:00:48;18.70;99.90
21778;DHT22;11050;52.222;20.916;2023-08-30T15:03:14;18.70;99.90
21778;DHT22;11050;52.222;20.916;2023-08-30T15:05:41;18.70;99.90
21778;DHT22;11050;52.222;20.916;2023-08-30T15:08:07;18.60;99.90
21778;DHT22;11050;52.222;20.916;2023-08-30T15:10:33;18.60;99.90
21778;DHT22;11050;52.222;20.916;2023-08-30T15:12:58;18.60;99.90
21778;DHT22;11050;52.222;20.916;2023-08-30T15:15:24;18.60;99.90
21778;DHT22;11050;52.222;20.916;2023-08-30T15:17:50;18.50;99.90
21778;DHT22;11050;52.222;20.916;2023-08-30T15:20:16;18.50;99.90
21778;DHT22;11050;52.222;20.916;2023-08-30T15:22:42;18.40;99.90
21778;DHT22;11050;52.222;20.916;2023-08-30T15:25:08;18.30;99.90
21778;DHT22;11050;52.222;20.916;2023-08-30T15:27:34;18.30;99.90
21778;DHT22;11050;52.222;20.916;2023-08-30T15:30:01;18.30;99.90